createdAt,value
2019-02-20T00:01:32.151Z,121.60
2019-02-20T00:04:03.965Z,126.40
2019-02-20T00:06:36.059Z,127.40
2019-02-20T00:09:08.336Z,127.00
2019-02-20T00:11:40.554Z,122.20
2019-02-20T00:14:11.991Z,123.40
2019-02-20T00:16:43.552Z,119.60
2019-02-20T00:19:15.394Z,110.60
2019-02-20T00:21:47.251Z,113.00
2019-02-20T00:24:18.985Z,121.20
2019-02-20T00:26:50.948Z,123.60
2019-02-20T00:29:22.617Z,132.60
2019-02-20T00:31:54.652Z,117.40
2019-02-20T00:34:25.905Z,126.60
2019-02-20T00:36:58.026Z,133.60
2019-02-20T00:39:29.539Z,133.00
2019-02-20T00:42:01.237Z,135.60
2019-02-20T00:45:06.866Z,143.80
2019-02-20T00:47:55.613Z,145.80
2019-02-20T00:50:29.273Z,144.80
2019-02-20T00:53:20.115Z,146.20
2019-02-20T00:55:52.001Z,143.20
2019-02-20T00:58:23.659Z,144.80
2019-02-20T01:00:55.416Z,136.00
2019-02-20T01:03:27.064Z,137.80
2019-02-20T01:05:58.949Z,160.40
2019-02-20T01:08:30.556Z,152.80
2019-02-20T01:11:02.445Z,165.40
2019-02-20T01:13:34.042Z,153.40
2019-02-20T01:16:05.556Z,147.40
2019-02-20T01:18:37.227Z,146.60
2019-02-20T01:21:09.274Z,157.80
2019-02-20T01:23:40.901Z,152.40
2019-02-20T01:26:12.993Z,151.80
2019-02-20T01:28:44.631Z,153.00
2019-02-20T01:31:16.175Z,151.20
2019-02-20T01:33:48.133Z,142.40
2019-02-20T01:36:19.509Z,150.20
2019-02-20T01:38:50.909Z,157.20
2019-02-20T01:41:22.685Z,144.60
2019-02-20T01:43:54.672Z,174.60
2019-02-20T01:46:26.230Z,180.20
2019-02-20T01:48:58.039Z,166.20
2019-02-20T01:51:29.780Z,173.80
2019-02-20T01:54:01.490Z,168.60
2019-02-20T01:56:33.334Z,184.20
2019-02-20T01:59:04.984Z,161.00
2019-02-20T02:01:36.690Z,159.00
2019-02-20T02:04:08.456Z,185.40
2019-02-20T02:06:40.230Z,181.80
2019-02-20T02:09:12.167Z,202.00
2019-02-20T02:11:44.438Z,186.40
2019-02-20T02:14:15.853Z,211.80
2019-02-20T02:16:47.702Z,174.80
2019-02-20T02:19:19.493Z,178.20
2019-02-20T02:21:51.234Z,173.80
2019-02-20T02:24:22.955Z,168.80
2019-02-20T02:26:55.695Z,174.80
2019-02-20T02:29:27.891Z,182.80
2019-02-20T02:31:59.739Z,156.40
2019-02-20T02:34:31.441Z,176.60
2019-02-20T02:37:02.873Z,171.60
2019-02-20T02:39:34.510Z,169.40
2019-02-20T02:42:06.591Z,166.20
2019-02-20T02:44:38.437Z,171.00
2019-02-20T02:47:09.971Z,169.80
2019-02-20T02:49:41.695Z,181.80
2019-02-20T02:52:13.353Z,183.40
2019-02-20T02:54:45.275Z,199.80
2019-02-20T02:57:16.868Z,188.00
2019-02-20T02:59:48.760Z,195.80
2019-02-20T03:02:20.835Z,193.60
2019-02-20T03:04:53.188Z,185.80
2019-02-20T03:07:24.563Z,198.20
2019-02-20T03:09:56.092Z,189.40
2019-02-20T03:12:27.777Z,212.00
2019-02-20T03:14:59.383Z,180.40
2019-02-20T03:17:30.890Z,189.00
2019-02-20T03:20:02.383Z,203.80
2019-02-20T03:22:34.823Z,188.40
2019-02-20T03:25:06.494Z,192.00
2019-02-20T03:27:38.318Z,196.00
2019-02-20T03:30:10.397Z,216.60
2019-02-20T03:32:41.786Z,227.60
2019-02-20T03:35:13.288Z,202.50
2019-02-20T03:37:44.600Z,223.75
2019-02-20T03:40:16.550Z,221.75
2019-02-20T03:42:48.294Z,213.00
2019-02-20T03:45:20.559Z,227.00
2019-02-20T03:47:51.986Z,209.75
2019-02-20T03:50:23.787Z,213.60
2019-02-20T03:52:55.713Z,209.80
2019-02-20T03:55:27.423Z,216.60
2019-02-20T03:57:58.939Z,198.00
2019-02-20T04:00:30.360Z,229.50
2019-02-20T04:03:01.749Z,210.25
2019-02-20T04:05:33.310Z,208.00
2019-02-20T04:08:05.217Z,185.40
2019-02-20T04:10:36.622Z,222.75
2019-02-20T04:13:08.331Z,205.25
2019-02-20T04:15:40.027Z,227.75
2019-02-20T04:18:11.638Z,247.50
2019-02-20T04:20:43.258Z,260.25
2019-02-20T04:23:14.969Z,234.00
2019-02-20T04:25:46.472Z,238.50
2019-02-20T04:28:18.032Z,212.25
2019-02-20T04:30:49.737Z,210.50
2019-02-20T04:33:21.365Z,199.40
2019-02-20T04:35:53.057Z,229.50
2019-02-20T04:38:24.436Z,215.00
2019-02-20T04:40:56.143Z,215.50
2019-02-20T04:43:27.908Z,223.75
2019-02-20T04:45:59.626Z,241.50
2019-02-20T04:48:31.162Z,214.40
2019-02-20T04:51:03.121Z,223.75
2019-02-20T04:53:34.760Z,232.00
2019-02-20T04:56:06.427Z,205.20
2019-02-20T04:58:38.391Z,208.60
2019-02-20T05:01:09.981Z,210.80
2019-02-20T05:03:41.503Z,205.60
2019-02-20T05:06:13.051Z,189.20
2019-02-20T05:08:44.923Z,193.40
2019-02-20T05:11:16.621Z,202.80
2019-02-20T05:13:48.335Z,205.20
2019-02-20T05:16:20.514Z,210.40
2019-02-20T05:18:52.212Z,208.60
2019-02-20T05:21:23.872Z,206.00
2019-02-20T05:23:55.286Z,208.80
2019-02-20T05:26:27.048Z,204.80
2019-02-20T05:28:58.715Z,187.40
2019-02-20T05:31:30.256Z,190.60
2019-02-20T05:34:01.886Z,175.80
2019-02-20T05:36:33.500Z,194.40
2019-02-20T05:39:06.053Z,170.80
2019-02-20T05:41:38.498Z,175.40
2019-02-20T05:44:09.727Z,192.80
2019-02-20T05:46:41.228Z,187.40
2019-02-20T05:49:12.773Z,168.00
2019-02-20T05:51:44.651Z,176.40
2019-02-20T05:54:16.824Z,187.00
2019-02-20T05:56:48.768Z,197.60
2019-02-20T05:59:20.922Z,188.60
2019-02-20T06:01:53.057Z,209.40
2019-02-20T06:04:25.319Z,218.00
2019-02-20T06:06:57.476Z,195.60
2019-02-20T06:09:30.149Z,215.20
2019-02-20T06:12:02.099Z,198.00
2019-02-20T06:14:34.217Z,148.60
2019-02-20T06:17:06.269Z,197.20
2019-02-20T06:19:37.824Z,195.60
2019-02-20T06:22:10.426Z,216.20
2019-02-20T06:24:44.194Z,207.40
2019-02-20T06:27:15.396Z,189.00
2019-02-20T06:29:47.282Z,191.40
2019-02-20T06:32:19.036Z,214.20
2019-02-20T06:34:50.506Z,189.20
2019-02-20T06:37:22.501Z,192.20
2019-02-20T06:39:54.284Z,199.00
2019-02-20T06:42:26.038Z,164.60
2019-02-20T06:44:57.715Z,164.80
2019-02-20T06:47:29.780Z,175.00
2019-02-20T06:50:01.754Z,162.00
2019-02-20T06:52:34.705Z,182.40
2019-02-20T06:55:06.887Z,167.20
2019-02-20T06:57:39.167Z,170.60
2019-02-20T07:00:12.651Z,169.20
2019-02-20T07:02:44.441Z,174.00
2019-02-20T07:05:49.995Z,168.20
2019-02-20T07:09:04.824Z,170.40
2019-02-20T07:12:09.439Z,161.80
2019-02-20T07:15:18.783Z,175.00
2019-02-20T07:18:29.035Z,153.60
2019-02-20T07:22:00.092Z,171.20
2019-02-20T07:25:03.068Z,167.60
2019-02-20T07:28:32.963Z,151.20
2019-02-20T07:31:05.572Z,172.20
2019-02-20T07:33:37.483Z,153.80
2019-02-20T07:36:09.317Z,143.00
2019-02-20T07:38:45.358Z,147.40
2019-02-20T07:41:17.054Z,141.40
2019-02-20T07:43:49.660Z,138.80
2019-02-20T07:46:24.665Z,131.80
2019-02-20T07:48:56.388Z,142.00
2019-02-20T07:51:28.238Z,126.40
2019-02-20T07:54:00.096Z,117.60
2019-02-20T07:56:31.859Z,109.80
2019-02-20T07:59:03.351Z,117.40
2019-02-20T08:01:35.006Z,106.40
2019-02-20T08:04:06.822Z,109.60
2019-02-20T08:06:38.596Z,102.60
2019-02-20T08:09:10.128Z,95.00
2019-02-20T08:11:42.770Z,89.20
2019-02-20T08:14:14.268Z,99.40
2019-02-20T08:16:52.175Z,109.60
2019-02-20T08:19:21.809Z,104.20
2019-02-20T08:21:53.158Z,111.20
2019-02-20T08:24:24.608Z,117.40
2019-02-20T08:26:56.265Z,105.00
2019-02-20T08:29:31.683Z,95.00
2019-02-20T08:32:03.536Z,109.20
2019-02-20T08:34:36.298Z,111.60
2019-02-20T08:37:08.129Z,112.80
2019-02-20T08:39:39.643Z,115.20
2019-02-20T08:42:11.235Z,99.60
2019-02-20T08:44:42.852Z,97.20
2019-02-20T08:47:14.823Z,110.80
2019-02-20T08:49:46.496Z,98.00
2019-02-20T08:52:18.164Z,101.60
2019-02-20T08:54:50.259Z,110.40
2019-02-20T08:57:21.740Z,89.40
2019-02-20T08:59:53.463Z,95.20
2019-02-20T09:02:26.713Z,102.80
2019-02-20T09:04:58.906Z,99.20
2019-02-20T09:07:31.210Z,94.20
2019-02-20T09:10:03.396Z,95.00
2019-02-20T09:12:36.490Z,93.80
2019-02-20T09:15:08.824Z,95.80
2019-02-20T09:17:40.713Z,97.40
2019-02-20T09:20:12.513Z,93.80
2019-02-20T09:22:47.050Z,86.00
2019-02-20T09:25:20.114Z,97.20
2019-02-20T09:27:52.290Z,88.60
2019-02-20T09:30:28.433Z,92.20
2019-02-20T09:32:56.774Z,89.00
2019-02-20T09:35:28.396Z,95.00
2019-02-20T09:38:00.534Z,91.00
2019-02-20T09:40:31.975Z,94.80
2019-02-20T09:43:03.977Z,92.00
2019-02-20T09:45:41.999Z,80.20
2019-02-20T09:48:10.175Z,91.80
2019-02-20T09:50:41.979Z,85.40
2019-02-20T09:53:13.990Z,88.60
2019-02-20T09:55:51.640Z,85.60
2019-02-20T09:58:19.264Z,84.00
2019-02-20T10:00:51.129Z,84.20
2019-02-20T10:03:22.997Z,85.40
2019-02-20T10:05:54.941Z,93.00
2019-02-20T10:08:26.641Z,90.20
2019-02-20T10:10:58.049Z,95.60
2019-02-20T10:13:30.680Z,90.20
2019-02-20T10:16:03.479Z,94.00
2019-02-20T10:18:36.103Z,90.60
2019-02-20T10:21:07.825Z,88.80
2019-02-20T10:23:39.764Z,94.00
2019-02-20T10:26:11.328Z,90.40
2019-02-20T10:28:42.922Z,92.20
2019-02-20T10:31:14.850Z,92.40
2019-02-20T10:33:46.863Z,84.60
2019-02-20T10:36:19.425Z,89.40
2019-02-20T10:38:51.457Z,87.40
2019-02-20T10:41:26.113Z,89.40
2019-02-20T10:43:58.014Z,88.40
2019-02-20T10:46:29.864Z,83.00
2019-02-20T10:49:01.810Z,81.40
2019-02-20T10:51:32.342Z,81.20
2019-02-20T10:54:04.207Z,76.40
2019-02-20T10:56:36.332Z,76.80
2019-02-20T10:59:08.259Z,81.40
2019-02-20T11:01:40.243Z,84.80
2019-02-20T11:04:12.169Z,85.80
2019-02-20T11:06:44.202Z,84.40
2019-02-20T11:09:16.065Z,83.80
2019-02-20T11:11:48.124Z,86.20
2019-02-20T11:14:20.164Z,93.20
2019-02-20T11:16:52.272Z,84.80
2019-02-20T11:19:24.093Z,78.60
2019-02-20T11:21:56.006Z,85.00
2019-02-20T11:24:27.761Z,80.60
2019-02-20T11:26:59.830Z,87.20
2019-02-20T11:29:31.688Z,80.00
2019-02-20T11:32:03.473Z,87.00
2019-02-20T11:34:35.383Z,85.80
2019-02-20T11:37:07.299Z,82.00
2019-02-20T11:39:39.053Z,84.80
2019-02-20T11:42:10.967Z,82.00
2019-02-20T11:44:43.746Z,86.60
2019-02-20T11:47:15.706Z,86.40
2019-02-20T11:49:47.376Z,87.00
2019-02-20T11:52:19.260Z,84.20
2019-02-20T11:54:51.006Z,83.40
2019-02-20T11:57:22.698Z,89.40
2019-02-20T11:59:54.108Z,85.60
2019-02-20T12:02:26.338Z,88.00
2019-02-20T12:04:57.870Z,91.80
2019-02-20T12:07:30.117Z,88.40
2019-02-20T12:10:02.006Z,84.20
2019-02-20T12:12:33.965Z,79.60
2019-02-20T12:15:06.242Z,80.20
2019-02-20T12:17:38.156Z,75.00
2019-02-20T12:20:09.693Z,79.20
2019-02-20T12:22:41.653Z,60.40
2019-02-20T12:25:15.182Z,83.60
2019-02-20T12:27:46.994Z,80.40
2019-02-20T12:30:18.569Z,85.80
2019-02-20T12:32:50.300Z,75.80
2019-02-20T12:35:22.008Z,82.00
2019-02-20T12:37:53.771Z,87.60
2019-02-20T12:40:25.459Z,90.40
2019-02-20T12:42:57.251Z,83.20
2019-02-20T12:45:29.070Z,95.00
2019-02-20T12:48:00.388Z,87.00
2019-02-20T12:50:31.933Z,88.00
2019-02-20T12:53:03.585Z,94.80
2019-02-20T12:55:35.579Z,92.00
2019-02-20T12:58:07.299Z,92.80
2019-02-20T13:00:39.127Z,93.00
2019-02-20T13:03:11.230Z,95.00
2019-02-20T13:05:43.221Z,93.40
2019-02-20T13:08:14.939Z,104.00
2019-02-20T13:10:46.662Z,88.60
2019-02-20T13:13:18.596Z,95.40
2019-02-20T13:15:50.160Z,96.80
2019-02-20T13:18:22.095Z,96.20
2019-02-20T13:20:53.824Z,88.60
2019-02-20T13:23:25.444Z,84.80
2019-02-20T13:25:57.091Z,104.20
2019-02-20T13:28:28.887Z,91.60
2019-02-20T13:31:00.925Z,96.00
2019-02-20T13:33:32.741Z,100.80
2019-02-20T13:36:04.961Z,122.00
2019-02-20T13:38:36.388Z,108.60
2019-02-20T13:41:07.815Z,105.80
2019-02-20T13:43:40.870Z,95.40
2019-02-20T13:46:12.560Z,121.00
2019-02-20T13:48:44.252Z,100.20
2019-02-20T13:51:17.654Z,93.60
2019-02-20T13:53:49.144Z,106.60
2019-02-20T13:56:20.868Z,97.60
2019-02-20T13:58:52.650Z,100.20
2019-02-20T14:01:24.653Z,92.40
2019-02-20T14:03:56.182Z,95.80
2019-02-20T14:06:27.864Z,96.40
2019-02-20T14:08:59.567Z,95.80
2019-02-20T14:11:31.220Z,102.40
2019-02-20T14:14:02.820Z,93.60
2019-02-20T14:16:34.594Z,106.40
2019-02-20T14:19:06.518Z,92.80
2019-02-20T14:21:38.052Z,88.00
2019-02-20T14:24:09.918Z,95.40
2019-02-20T14:26:41.512Z,94.60
2019-02-20T14:29:13.353Z,92.20
2019-02-20T14:31:45.225Z,93.60
2019-02-20T14:34:16.977Z,102.80
2019-02-20T14:36:48.923Z,94.00
2019-02-20T14:39:20.420Z,89.80
2019-02-20T14:41:52.477Z,87.20
2019-02-20T14:44:23.804Z,92.80
2019-02-20T14:46:56.600Z,95.20
2019-02-20T14:49:28.206Z,90.80
2019-02-20T14:52:00.729Z,91.20
2019-02-20T14:54:32.606Z,91.60
2019-02-20T14:57:04.952Z,91.00
2019-02-20T14:59:37.388Z,97.40
2019-02-20T15:02:09.570Z,100.00
2019-02-20T15:04:50.323Z,94.20
2019-02-20T15:07:23.982Z,96.00
2019-02-20T15:09:56.200Z,95.60
2019-02-20T15:12:27.932Z,96.00
2019-02-20T15:14:59.393Z,95.00
2019-02-20T15:17:31.668Z,94.80
2019-02-20T15:20:03.528Z,95.80
2019-02-20T15:22:35.587Z,96.20
2019-02-20T15:25:07.377Z,99.60
2019-02-20T15:27:39.528Z,98.20
2019-02-20T15:30:12.741Z,95.40
2019-02-20T15:32:44.606Z,99.80
2019-02-20T15:35:16.657Z,112.00
2019-02-20T15:37:48.498Z,116.80
2019-02-20T15:40:20.094Z,117.80
2019-02-20T15:42:51.719Z,104.20
2019-02-20T15:45:23.453Z,116.80
2019-02-20T15:47:55.166Z,105.60
2019-02-20T15:50:27.394Z,97.40
2019-02-20T15:52:58.877Z,110.00
2019-02-20T15:55:30.718Z,91.80
2019-02-20T15:58:02.330Z,99.60
2019-02-20T16:00:34.119Z,88.20
2019-02-20T16:03:05.968Z,95.60
2019-02-20T16:05:37.392Z,95.00
2019-02-20T16:08:09.270Z,97.40
2019-02-20T16:10:41.040Z,93.40
2019-02-20T16:13:12.552Z,95.00
2019-02-20T16:15:45.274Z,76.20
2019-02-20T16:18:16.963Z,92.20
2019-02-20T16:20:49.177Z,97.20
2019-02-20T16:23:20.914Z,96.60
2019-02-20T16:25:52.685Z,99.80
2019-02-20T16:28:31.840Z,106.60
2019-02-20T16:30:57.838Z,105.60
2019-02-20T16:33:29.372Z,98.60
2019-02-20T16:36:00.961Z,99.60
2019-02-20T16:38:32.493Z,102.60
2019-02-20T16:41:04.779Z,96.20
2019-02-20T16:43:36.530Z,96.60
2019-02-20T16:46:10.133Z,96.40
2019-02-20T16:48:43.153Z,94.60
2019-02-20T16:51:14.879Z,104.40
2019-02-20T16:53:50.059Z,92.40
2019-02-20T16:56:21.858Z,98.20
2019-02-20T16:58:53.621Z,89.40
2019-02-20T17:01:25.576Z,95.20
2019-02-20T17:03:57.323Z,97.60
2019-02-20T17:06:29.012Z,96.60
2019-02-20T17:09:00.625Z,98.00
2019-02-20T17:11:33.830Z,95.20
2019-02-20T17:14:05.591Z,101.00
2019-02-20T17:16:37.449Z,101.00
2019-02-20T17:19:09.451Z,98.80
2019-02-20T17:21:41.379Z,101.80
2019-02-20T17:24:13.148Z,105.60
2019-02-20T17:26:45.087Z,108.20
2019-02-20T17:29:16.930Z,111.00
2019-02-20T17:31:49.200Z,111.20
2019-02-20T17:34:20.998Z,106.40
2019-02-20T17:36:53.212Z,120.60
2019-02-20T17:39:24.682Z,116.40
2019-02-20T17:41:57.728Z,111.00
2019-02-20T17:44:29.236Z,127.40
2019-02-20T17:47:00.730Z,116.20
2019-02-20T17:49:32.477Z,109.40
2019-02-20T17:52:04.230Z,117.00
2019-02-20T17:54:36.060Z,113.80
2019-02-20T17:57:07.771Z,110.40
2019-02-20T17:59:39.422Z,114.20
2019-02-20T18:02:11.173Z,119.00
2019-02-20T18:04:43.859Z,115.20
2019-02-20T18:07:17.141Z,103.00
2019-02-20T18:09:49.805Z,121.40
2019-02-20T18:12:21.397Z,128.20
2019-02-20T18:14:52.966Z,113.20
2019-02-20T18:17:24.920Z,108.60
2019-02-20T18:19:56.505Z,94.80
2019-02-20T18:22:27.971Z,93.40
2019-02-20T18:25:00.998Z,96.20
2019-02-20T18:27:33.202Z,95.60
2019-02-20T18:30:04.827Z,95.40
2019-02-20T18:32:38.414Z,97.00
2019-02-20T18:35:10.610Z,94.80
2019-02-20T18:37:42.543Z,96.60
2019-02-20T18:40:15.392Z,101.40
2019-02-20T18:42:47.513Z,96.00
2019-02-20T18:45:19.321Z,100.20
2019-02-20T18:47:50.881Z,95.20
2019-02-20T18:50:22.708Z,92.60
2019-02-20T18:52:54.702Z,101.80
2019-02-20T18:55:26.676Z,101.00
2019-02-20T18:57:59.843Z,110.60
2019-02-20T19:00:32.176Z,112.00
2019-02-20T19:03:04.233Z,110.00
2019-02-20T19:05:35.946Z,118.60
2019-02-20T19:08:51.185Z,108.80
2019-02-20T19:11:38.855Z,92.60
2019-02-20T19:14:21.836Z,98.40
2019-02-20T19:17:16.896Z,97.40
2019-02-20T19:20:23.807Z,91.20
2019-02-20T19:23:37.219Z,95.60
2019-02-20T19:26:35.889Z,95.60
2019-02-20T19:29:27.988Z,89.00
2019-02-20T19:32:34.361Z,84.00
2019-02-20T19:35:24.017Z,93.40
2019-02-20T19:38:16.410Z,88.80
2019-02-20T19:41:22.704Z,95.40
2019-02-20T19:44:16.983Z,94.60
2019-02-20T19:47:41.157Z,84.80
2019-02-20T19:50:57.554Z,91.00
2019-02-20T19:53:42.043Z,91.40
2019-02-20T19:57:02.398Z,94.40
2019-02-20T19:59:53.182Z,94.80
2019-02-20T20:02:55.949Z,96.00
2019-02-20T20:06:03.227Z,88.80
2019-02-20T20:09:12.076Z,92.00
2019-02-20T20:12:26.931Z,95.60
2019-02-20T20:16:43.638Z,80.20
2019-02-20T20:19:43.431Z,88.80
2019-02-20T20:22:57.114Z,83.80
2019-02-20T20:25:48.823Z,94.00
2019-02-20T20:28:35.402Z,89.20
2019-02-20T20:31:38.227Z,91.20
2019-02-20T20:34:58.490Z,88.00
2019-02-20T20:38:09.080Z,92.80
2019-02-20T20:41:12.830Z,89.00
2019-02-20T20:44:09.208Z,92.20
2019-02-20T20:47:15.353Z,94.00
2019-02-20T20:49:59.181Z,95.00
2019-02-20T20:52:44.900Z,94.00
2019-02-20T20:55:48.819Z,95.80
2019-02-20T20:58:40.044Z,92.40
2019-02-20T21:01:39.105Z,89.80
2019-02-20T21:05:06.543Z,98.20
2019-02-20T21:08:10.012Z,96.60
2019-02-20T21:11:13.310Z,93.80
2019-02-20T21:14:36.928Z,90.00
2019-02-20T21:17:44.587Z,88.80
2019-02-20T21:20:54.112Z,86.40
2019-02-20T21:24:20.619Z,103.60
2019-02-20T21:27:41.960Z,98.40
2019-02-20T21:30:48.669Z,94.80
2019-02-20T21:34:09.569Z,96.20
2019-02-20T21:36:49.940Z,106.80
2019-02-20T21:39:51.936Z,100.20
2019-02-20T21:42:44.804Z,97.80
2019-02-20T21:45:29.016Z,102.20
2019-02-20T21:48:40.641Z,104.80
2019-02-20T21:51:33.507Z,88.60
2019-02-20T21:54:52.027Z,102.80
2019-02-20T21:57:41.486Z,106.80
2019-02-20T22:00:36.103Z,105.40
2019-02-20T22:03:49.130Z,98.20
2019-02-20T22:06:58.367Z,102.60
2019-02-20T22:10:02.816Z,95.40
2019-02-20T22:13:13.694Z,102.00
2019-02-20T22:16:04.329Z,100.20
2019-02-20T22:19:05.429Z,100.00
2019-02-20T22:22:17.635Z,100.40
2019-02-20T22:25:16.952Z,99.00
2019-02-20T22:28:26.897Z,102.00
2019-02-20T22:31:06.360Z,98.60
2019-02-20T22:34:06.612Z,99.00
2019-02-20T22:37:13.212Z,99.80
2019-02-20T22:40:14.141Z,94.40
2019-02-20T22:43:30.470Z,97.60
2019-02-20T22:46:31.114Z,104.20
2019-02-20T22:49:30.814Z,97.40
2019-02-20T22:52:10.828Z,101.60
2019-02-20T22:55:28.684Z,101.00
2019-02-20T22:58:50.229Z,102.40
2019-02-20T23:02:02.837Z,99.40
2019-02-20T23:05:16.303Z,107.00
2019-02-20T23:08:02.711Z,98.60
2019-02-20T23:11:02.935Z,101.20
2019-02-20T23:14:13.952Z,97.80
2019-02-20T23:16:45.926Z,99.40
2019-02-20T23:19:17.730Z,97.00
2019-02-20T23:21:49.325Z,100.80
2019-02-20T23:24:21.117Z,106.80
2019-02-20T23:26:52.837Z,103.00
2019-02-20T23:29:24.435Z,102.20
2019-02-20T23:31:55.916Z,98.60
2019-02-20T23:34:27.849Z,110.20
2019-02-20T23:36:59.871Z,111.20
2019-02-20T23:39:31.596Z,100.00
2019-02-20T23:42:03.206Z,106.20
2019-02-20T23:44:35.336Z,101.80
2019-02-20T23:47:06.819Z,110.20
2019-02-20T23:49:38.414Z,104.00
2019-02-20T23:52:10.147Z,102.20
2019-02-20T23:54:41.559Z,107.00
2019-02-20T23:57:13.514Z,103.40
2019-02-20T23:59:45.112Z,116.60
